Flight Track Log - Related Links

Times and Time Zones

All times are in EDT time to prevent confusion due to time zone crossing. See the ACA860 flight status page for this flight to view local times or setup timezone preferences in your user account.

Time Position Orientation Groundspeed Altitude Reporting Facility
EDT Latitude Longitude Course Direction KTS MPH feet Rate Location/Type
Thu 11:01:13 PM 44.8833 -63.4833 90° East 160 184 2,000  Level Moncton Center
Thu 11:02:13 PM 44.9167 -63.4333 47° Northeast 200 230 3,900 2,350 Climbing Moncton Center
Thu 11:03:13 PM 44.9667 -63.3833 35° Northeast 250 288 6,700 2,950 Climbing Moncton Center
Thu 11:04:13 PM 45.0333 -63.3167 35° Northeast 270 311 9,800 2,350 Climbing Moncton Center
Thu 11:05:00 PM 44.9500 -62.5391 90° East  Level FlightAware Approximate
Thu 11:05:13 PM 45.0500 -63.1833 80° East 340 391 11,400  Level Moncton Center
Thu 11:06:00 PM 44.9500 -62.3408 90° East  Level FlightAware Approximate
Thu 11:06:13 PM 45.0500 -63.0500 90° East 410 472 13,200  Level Moncton Center
Thu 11:07:13 PM 45.0500 -62.8667 90° East 460 529 15,400 2,250 Climbing Moncton Center
Thu 11:08:13 PM 45.0667 -62.6667 83° East 490 564 17,700 2,350 Climbing Moncton Center
Thu 11:09:13 PM 45.0500 -62.4500 96° East 510 587 20,100 2,250 Climbing Moncton Center
Thu 11:10:13 PM 45.0500 -62.2500 90° East 530 610 22,200 2,100 Climbing Moncton Center
Thu 11:11:13 PM 45.0500 -62.0333 90° East 550 633 24,300 2,600 Climbing Moncton Center
Thu 11:12:13 PM 45.0500 -61.8167 90° East 550 633 27,400 2,150 Climbing Moncton Center
Thu 11:13:13 PM 45.0333 -61.6000 96° East 550 633 28,600 1,300 Climbing Moncton Center
Thu 11:14:13 PM 45.0333 -61.3667 90° East 570 656 30,000 1,600 Climbing Moncton Center
Thu 11:15:13 PM 45.0500 -61.1500 84° East 570 656 31,800 1,714 Climbing Moncton Center
Thu 11:15:30 PM 45.0500 -61.0667 90° East 570 656 32,200 857 Climbing Gander Center
Thu 11:16:30 PM 45.0500 -60.8500 90° East 580 667 32,900 466 Climbing Gander Center
Thu 11:17:13 PM 45.0500 -60.6833 90° East 580 667 33,000 100 Climbing Moncton Center
Thu 11:17:30 PM 45.0333 -60.6167 109° East 590 679 33,000  Level Gander Center
Thu 11:18:30 PM 45.0500 -60.3833 84° East 590 679 33,000  Level Gander Center
Thu 11:19:13 PM 45.0500 -60.2333 90° East 590 679 33,000  Level Moncton Center
Thu 11:20:13 PM 45.0500 -60.0000 90° East 590 679 33,000  Level Moncton Center
Thu 11:21:13 PM 45.0667 -59.7500 85° East 590 679 33,000  Level Moncton Center
Thu 11:21:30 PM 45.0667 -59.6833 90° East 590 679 33,000  Level Gander Center
Thu 11:22:13 PM 45.0667 -59.5333 90° East 590 679 33,000  Level Moncton Center
Thu 11:23:13 PM 45.0500 -59.3000 96° East 590 679 33,000  Level Moncton Center
Thu 11:24:13 PM 45.0667 -59.0667 84° East 590 679 33,000  Level Moncton Center
Thu 11:24:30 PM 45.0667 -59.0000 90° East 590 679 33,000  Level Gander Center
Thu 11:25:13 PM 45.0667 -58.8333 90° East 590 679 33,000  Level Moncton Center
Thu 11:26:13 PM 45.0667 -58.6000 90° East 590 679 33,000  Level Moncton Center
Thu 11:26:30 PM 45.0833 -58.5167 74° East 590 679 33,000  Level Gander Center
Thu 11:27:13 PM 45.0667 -58.3500 98° East 600 690 33,000  Level Moncton Center
Thu 11:28:13 PM 45.0667 -58.1167 90° East 600 690 33,000  Level Moncton Center
Thu 11:28:30 PM 45.0667 -58.0500 90° East 600 690 33,000  Level Gander Center
Thu 11:29:30 PM 45.0667 -57.8167 90° East 600 690 33,000  Level Gander Center
Thu 11:30:13 PM 45.0667 -57.6500 90° East 610 702 33,000  Level Moncton Center
Thu 11:31:13 PM 45.0500 -57.4000 95° East 610 702 33,000  Level Moncton Center
Thu 11:31:30 PM 45.0500 -57.3333 90° East 610 702 33,000  Level Gander Center
Thu 11:32:30 PM 45.0667 -57.1000 84° East 620 713 33,000  Level Gander Center
Thu 11:33:13 PM 45.0500 -56.9333 98° East 610 702 33,000  Level Moncton Center
Thu 11:34:13 PM 45.0500 -56.6667 90° East 620 713 33,000  Level Moncton Center
Thu 11:34:30 PM 45.0667 -56.6000 70° East 610 702 33,000  Level Gander Center
Thu 11:35:30 PM 45.0500 -56.3667 96° East 620 713 33,000  Level Gander Center
Thu 11:36:13 PM 45.0333 -56.2000 98° East 610 702 33,000  Level Moncton Center
Thu 11:37:13 PM 45.0333 -55.9667 90° East 620 713 33,000  Level Moncton Center
Thu 11:38:13 PM 45.0333 -55.7000 90° East 610 702 33,000  Level Moncton Center
Thu 11:39:13 PM 45.0333 -55.4667 90° East 610 702 33,000  Level Moncton Center
Thu 11:39:30 PM 45.0167 -55.4000 109° East 610 702 33,000  Level Gander Center
Thu 11:40:13 PM 45.0167 -55.2500 90° East 610 702 33,000  Level Moncton Center
Thu 11:41:13 PM 45.0167 -55.0000 90° East 610 702 33,000  Level Moncton Center
Thu 11:41:30 PM 45.0000 -54.9333 109° East 610 702 33,000  Level Gander Center
Thu 11:42:30 PM 45.0000 -54.6833 90° East 600 690 33,000  Level Gander Center
Thu 11:43:08 PM 45.0000 -54.5333 90° East 600 690 33,000  Level Gander Center
Thu 11:44:08 PM 44.9833 -54.3000 96° East 590 679 33,000  Level Gander Center
Thu 11:44:30 PM 45.0000 -54.2333 71° East 600 690 33,000  Level Gander Center
Thu 11:45:13 PM 45.0000 -54.0667 90° East 610 702 33,000  Level Moncton Center
Thu 11:46:13 PM 45.0000 -53.8333 90° East 600 690 33,000  Level Moncton Center
Thu 11:47:08 PM 45.0000 -53.6167 90° East 600 690 33,000  Level Gander Center
Thu 11:48:08 PM 45.0000 -53.3833 90° East 600 690 33,000  Level Gander Center
Thu 11:48:30 PM 45.0000 -53.3000 90° East 590 679 33,000  Level Gander Center
Thu 11:49:30 PM 45.0167 -53.0500 85° East 590 679 33,000  Level Gander Center
Thu 11:50:13 PM 45.0167 -52.8833 90° East 580 667 33,000  Level Moncton Center
Thu 11:50:30 PM 45.0167 -52.8333 90° East 590 679 33,000 312 Level Gander Center
Thu 11:51:30 PM 45.0167 -52.6000 90° East 590 679 33,400 367 Climbing Gander Center
Thu 11:52:08 PM 45.0000 -52.4500 99° East 590 679 33,600 400 Climbing Gander Center
Thu 11:52:30 PM 45.0167 -52.3500 77° East 590 679 33,800 512 Climbing Gander Center
Thu 11:53:30 PM 45.0000 -52.1167 96° East 570 656 34,300 450 Climbing Gander Center
Thu 11:54:30 PM 45.0000 -51.9167 90° East 590 679 34,700 350 Climbing Gander Center
Thu 11:55:13 PM 45.0000 -51.7333 90° East 580 667 34,900 184 Climbing Moncton Center
Thu 11:56:08 PM 45.0000 -51.5333 90° East 590 679 35,000 56 Climbing Gander Center
Thu 11:57:00 PM 44.8667 -51.8000 83° East 659 758 35,000  Level ETMS Enhanced Traffic Management System
Thu 11:57:30 PM 45.0000 -51.2167 83° East 590 679 35,000  Level Gander Center
Thu 11:58:08 PM 45.0000 -51.0833 90° East 590 679 35,000  Level Gander Center
Thu 11:58:30 PM 45.0000 -50.9833 90° East 600 690 35,000  Level Gander Center
Thu 11:59:30 PM 45.0000 -50.7500 90° East 600 690 35,000  Level Gander Center
Fri 12:00:30 AM 45.0000 -50.5167 90° East 590 679 35,000  Level Gander Center
Fri 12:01:30 AM 44.9833 -50.3000 96° East 600 690 35,000  Level Gander Center
Fri 12:02:30 AM 44.9833 -50.0667 90° East 600 690 35,000  Level Gander Center
Fri 12:03:00 AM 45.0000 -50.0000 78° East 578 665 35,000  Level ETMS Enhanced Traffic Management System
Fri 12:03:30 AM 44.9833 -49.8333 78° East 600 690 35,000  Level Gander Center
Fri 12:03:48 AM 45.0000 -50.0000 78° East 578 665 35,000  Level ETMS Enhanced Traffic Management System
Fri 12:04:30 AM 45.0167 -49.6000 78° East 600 690 35,000  Level Gander Center
Fri 12:05:30 AM 45.0500 -49.3667 78° East 600 690 35,000  Level Gander Center
Fri 12:06:08 AM 45.0667 -49.2167 81° East 590 679 35,000  Level Gander Center
Fri 12:07:08 AM 45.1000 -49.0000 78° East 590 679 35,000  Level Gander Center
Fri 12:08:08 AM 45.1167 -48.7667 84° East 600 690 35,000  Level Gander Center
Fri 12:08:30 AM 45.1500 -48.6667 65° Northeast 600 690 35,000  Level Gander Center
Fri 12:09:30 AM 45.1667 -48.4500 84° East 590 679 35,000  Level Gander Center
Fri 12:10:08 AM 45.1833 -48.3000 81° East 590 679 35,000  Level Gander Center
Fri 12:11:08 AM 45.2167 -48.0833 78° East 580 667 35,000  Level Gander Center
Fri 12:12:08 AM 45.2500 -47.8667 78° East 590 679 35,000  Level Gander Center
Fri 12:13:08 AM 45.2667 -47.6667 83° East 580 667 35,000  Level Gander Center
Fri 12:15:00 AM 45.3214 -47.3006 78° East  Level FlightAware Approximate
Fri 12:22:00 AM 45.5073 -45.9191 81° East  Level FlightAware Approximate
Fri 12:23:00 AM 45.5290 -45.7202 81° East  Level FlightAware Approximate
Fri 12:24:00 AM 45.5504 -45.5212 81° East  Level FlightAware Approximate
Fri 12:25:00 AM 45.5714 -45.3220 81° East  Level FlightAware Approximate
Fri 12:26:00 AM 45.5920 -45.1227 82° East  Level FlightAware Approximate
Fri 12:27:00 AM 45.6123 -44.9232 82° East  Level FlightAware Approximate
Fri 12:28:00 AM 45.6323 -44.7235 82° East  Level FlightAware Approximate
Fri 12:29:00 AM 45.6519 -44.5238 82° East  Level FlightAware Approximate
Fri 12:30:00 AM 45.6712 -44.3239 82° East  Level FlightAware Approximate
Fri 12:31:00 AM 45.6901 -44.1239 82° East  Level FlightAware Approximate
Fri 12:32:00 AM 45.7086 -43.9237 82° East  Level FlightAware Approximate
Fri 12:33:00 AM 45.7268 -43.7234 83° East  Level FlightAware Approximate
Fri 12:34:00 AM 45.7447 -43.5229 83° East  Level FlightAware Approximate
Fri 12:35:00 AM 45.7622 -43.3224 83° East  Level FlightAware Approximate
Fri 12:36:00 AM 45.7794 -43.1217 83° East  Level FlightAware Approximate
Fri 12:37:00 AM 45.7962 -42.9209 83° East  Level FlightAware Approximate
Fri 12:38:00 AM 45.8126 -42.7200 83° East  Level FlightAware Approximate
Fri 12:39:00 AM 45.8287 -42.5189 83° East  Level FlightAware Approximate
Fri 12:40:00 AM 45.8445 -42.3178 84° East  Level FlightAware Approximate
Fri 12:41:00 AM 45.8599 -42.1165 84° East  Level FlightAware Approximate
Fri 12:42:00 AM 45.8749 -41.9151 84° East  Level FlightAware Approximate
Fri 12:43:00 AM 45.8896 -41.7136 84° East  Level FlightAware Approximate
Fri 12:44:00 AM 45.9040 -41.5120 84° East  Level FlightAware Approximate
Fri 12:45:00 AM 45.9179 -41.3103 84° East  Level FlightAware Approximate
Fri 12:46:00 AM 45.9316 -41.1085 84° East  Level FlightAware Approximate
Fri 12:47:00 AM 45.9449 -40.9066 85° East  Level FlightAware Approximate
Fri 12:48:00 AM 45.9578 -40.7046 85° East  Level FlightAware Approximate
Fri 12:48:00 AM 46.0000 -40.0000 78° East 556 640 35,000  Level ETMS Enhanced Traffic Management System
Fri 12:49:00 AM 45.9703 -40.5025 85° East  Level FlightAware Approximate
Fri 12:50:00 AM 45.9825 -40.3004 85° East  Level FlightAware Approximate
Fri 12:51:00 AM 45.9944 -40.0981 85° East  Level FlightAware Approximate
Fri 12:52:00 AM 46.0144 -39.8975 79° East  Level FlightAware Approximate
Fri 12:53:00 AM 46.0421 -39.6983 79° East  Level FlightAware Approximate
Fri 12:54:00 AM 46.2410 -38.2514 79° East 556 640 35,000  Level FlightAware Transoceanic
Fri 12:55:00 AM 46.2693 -38.0318 80° East 556 640 35,000  Level FlightAware Transoceanic
Fri 12:56:00 AM 46.2971 -37.8120 80° East 556 640 35,000  Level FlightAware Transoceanic
Fri 12:57:00 AM 46.3245 -37.5919 80° East 556 640 35,000  Level FlightAware Transoceanic
Fri 12:58:00 AM 46.3515 -37.3716 80° East 556 640 35,000  Level FlightAware Transoceanic
Fri 12:59:00 AM 46.3780 -37.1511 80° East 556 640 35,000  Level FlightAware Transoceanic
Fri 01:00:00 AM 46.4042 -36.9304 80° East 556 640 35,000  Level FlightAware Transoceanic
Fri 01:01:00 AM 46.4299 -36.7094 80° East 556 640 35,000  Level FlightAware Transoceanic
Fri 01:02:00 AM 46.4552 -36.4883 81° East 556 640 35,000  Level FlightAware Transoceanic
Fri 01:03:00 AM 46.4800 -36.2670 81° East 556 640 35,000  Level FlightAware Transoceanic
Fri 01:04:00 AM 46.5044 -36.0454 81° East 556 640 35,000  Level FlightAware Transoceanic
Fri 01:05:00 AM 46.5284 -35.8237 81° East 556 640 35,000  Level FlightAware Transoceanic
Fri 01:06:00 AM 46.5520 -35.6018 81° East 556 640 35,000  Level FlightAware Transoceanic
Fri 01:07:00 AM 46.5751 -35.3796 81° East 556 640 35,000  Level FlightAware Transoceanic
Fri 01:08:00 AM 46.5979 -35.1573 82° East 556 640 35,000  Level FlightAware Transoceanic
Fri 01:09:00 AM 46.6201 -34.9348 82° East 556 640 35,000  Level FlightAware Transoceanic
Fri 01:10:00 AM 46.6420 -34.7122 82° East 556 640 35,000  Level FlightAware Transoceanic
Fri 01:11:00 AM 46.6634 -34.4893 82° East 556 640 35,000  Level FlightAware Transoceanic
Fri 01:12:00 AM 46.6844 -34.2663 82° East 556 640 35,000  Level FlightAware Transoceanic
Fri 01:13:00 AM 46.7049 -34.0431 82° East 556 640 35,000  Level FlightAware Transoceanic
Fri 01:14:00 AM 46.7251 -33.8197 83° East 556 640 35,000  Level FlightAware Transoceanic
Fri 01:15:00 AM 46.7447 -33.5962 83° East 556 640 35,000  Level FlightAware Transoceanic
Fri 01:16:00 AM 46.7640 -33.3725 83° East 556 640 35,000  Level FlightAware Transoceanic
Fri 01:17:00 AM 46.7828 -33.1486 83° East 556 640 35,000  Level FlightAware Transoceanic
Fri 01:18:00 AM 46.8012 -32.9246 83° East 556 640 35,000  Level FlightAware Transoceanic
Fri 01:19:00 AM 46.8191 -32.7004 83° East 556 640 35,000  Level FlightAware Transoceanic
Fri 01:20:00 AM 46.8366 -32.4761 84° East 556 640 35,000  Level FlightAware Transoceanic
Fri 01:21:00 AM 46.8536 -32.2517 84° East 556 640 35,000  Level FlightAware Transoceanic
Fri 01:22:00 AM 46.8703 -32.0271 84° East 556 640 35,000  Level FlightAware Transoceanic
Fri 01:23:00 AM 46.8864 -31.8024 84° East 556 640 35,000  Level FlightAware Transoceanic
Fri 01:24:00 AM 46.9022 -31.5775 84° East 556 640 35,000  Level FlightAware Transoceanic
Fri 01:25:00 AM 46.9175 -31.3525 84° East 556 640 35,000  Level FlightAware Transoceanic
Fri 01:26:00 AM 46.9323 -31.1274 85° East 556 640 35,000  Level FlightAware Transoceanic
Fri 01:27:00 AM 46.9468 -30.9021 85° East 556 640 35,000  Level FlightAware Transoceanic
Fri 01:28:00 AM 46.9607 -30.6768 85° East 556 640 35,000  Level FlightAware Transoceanic
Fri 01:29:00 AM 46.9743 -30.4513 85° East 556 640 35,000  Level FlightAware Transoceanic
Fri 01:30:00 AM 46.9874 -30.2257 85° East 556 640 35,000  Level FlightAware Transoceanic
Fri 01:31:00 AM 46.9989 -30.0196 85° East  Level FlightAware Approximate
Fri 01:32:00 AM 47.0101 -29.8135 85° East  Level FlightAware Approximate
Fri 01:33:00 AM 47.0395 -29.8429 70° East  Level FlightAware Approximate
Fri 01:33:00 AM 47.0000 -30.0000 70° East 502 578 35,000  Level ETMS Enhanced Traffic Management System
Fri 01:34:00 AM 47.0881 -29.6485 70° East  Level FlightAware Approximate
Fri 01:35:00 AM 47.1363 -29.4538 70° East  Level FlightAware Approximate
Fri 01:36:00 AM 47.1847 -29.2566 70° East  Level FlightAware Approximate
Fri 01:37:00 AM 47.2328 -29.0590 70° East  Level FlightAware Approximate
Fri 01:38:00 AM 47.2805 -28.8611 70° East  Level FlightAware Approximate
Fri 01:39:00 AM 47.3774 -28.4538 71° East 502 578 35,000  Level FlightAware Transoceanic
Fri 01:40:00 AM 47.4231 -28.2590 71° East 502 578 35,000  Level FlightAware Transoceanic
Fri 01:41:00 AM 47.4684 -28.0639 71° East 502 578 35,000  Level FlightAware Transoceanic
Fri 01:42:00 AM 47.5135 -27.8684 71° East 502 578 35,000  Level FlightAware Transoceanic
Fri 01:43:00 AM 47.5582 -27.6726 71° East 502 578 35,000  Level FlightAware Transoceanic
Fri 01:44:00 AM 47.6025 -27.4764 72° East 502 578 35,000  Level FlightAware Transoceanic
Fri 01:45:00 AM 47.6466 -27.2799 72° East 502 578 35,000  Level FlightAware Transoceanic
Fri 01:46:00 AM 47.6903 -27.0831 72° East 502 578 35,000  Level FlightAware Transoceanic
Fri 01:47:00 AM 47.7336 -26.8860 72° East 502 578 35,000  Level FlightAware Transoceanic
Fri 01:48:00 AM 47.7767 -26.6885 72° East 502 578 35,000  Level FlightAware Transoceanic
Fri 01:49:00 AM 47.8194 -26.4907 72° East 502 578 35,000  Level FlightAware Transoceanic
Fri 01:50:00 AM 47.8617 -26.2926 72° East 502 578 35,000  Level FlightAware Transoceanic
Fri 01:51:00 AM 47.9037 -26.0942 73° East 502 578 35,000  Level FlightAware Transoceanic
Fri 01:52:00 AM 47.9454 -25.8954 73° East 502 578 35,000  Level FlightAware Transoceanic
Fri 01:53:00 AM 47.9867 -25.6963 73° East 502 578 35,000  Level FlightAware Transoceanic
Fri 01:54:00 AM 48.0276 -25.4969 73° East 502 578 35,000  Level FlightAware Transoceanic
Fri 01:55:00 AM 48.0683 -25.2972 73° East 502 578 35,000  Level FlightAware Transoceanic
Fri 01:56:00 AM 48.1086 -25.0972 73° East 502 578 35,000  Level FlightAware Transoceanic
Fri 01:57:00 AM 48.1485 -24.8968 73° East 502 578 35,000  Level FlightAware Transoceanic
Fri 01:58:00 AM 48.1881 -24.6962 74° East 502 578 35,000  Level FlightAware Transoceanic
Fri 01:59:00 AM 48.2273 -24.4952 74° East 502 578 35,000  Level FlightAware Transoceanic
Fri 02:00:00 AM 48.2662 -24.2939 74° East 502 578 35,000  Level FlightAware Transoceanic
Fri 02:01:00 AM 48.3047 -24.0924 74° East 502 578 35,000  Level FlightAware Transoceanic
Fri 02:02:00 AM 48.3429 -23.8905 74° East 502 578 35,000  Level FlightAware Transoceanic
Fri 02:03:00 AM 48.3807 -23.6883 74° East 502 578 35,000  Level FlightAware Transoceanic
Fri 02:04:00 AM 48.4182 -23.4858 75° East 502 578 35,000  Level FlightAware Transoceanic
Fri 02:05:00 AM 48.4553 -23.2831 75° East 502 578 35,000  Level FlightAware Transoceanic
Fri 02:06:00 AM 48.4921 -23.0800 75° East 502 578 35,000  Level FlightAware Transoceanic
Fri 02:07:00 AM 48.5285 -22.8766 75° East 502 578 35,000  Level FlightAware Transoceanic
Fri 02:08:00 AM 48.5645 -22.6730 75° East 502 578 35,000  Level FlightAware Transoceanic
Fri 02:09:00 AM 48.6002 -22.4690 75° East 502 578 35,000  Level FlightAware Transoceanic
Fri 02:10:00 AM 48.6355 -22.2648 75° East 502 578 35,000  Level FlightAware Transoceanic
Fri 02:11:00 AM 48.6705 -22.0603 76° East 502 578 35,000  Level FlightAware Transoceanic
Fri 02:12:00 AM 48.7051 -21.8555 76° East 502 578 35,000  Level FlightAware Transoceanic
Fri 02:13:00 AM 48.7393 -21.6504 76° East 502 578 35,000  Level FlightAware Transoceanic
Fri 02:14:00 AM 48.7732 -21.4451 76° East 502 578 35,000  Level FlightAware Transoceanic
Fri 02:15:00 AM 48.8067 -21.2394 76° East 502 578 35,000  Level FlightAware Transoceanic
Fri 02:16:00 AM 48.8398 -21.0335 76° East 502 578 35,000  Level FlightAware Transoceanic
Fri 02:17:00 AM 48.8726 -20.8274 76° East 502 578 35,000  Level FlightAware Transoceanic
Fri 02:18:00 AM 48.9050 -20.6209 77° East 502 578 35,000  Level FlightAware Transoceanic
Fri 02:19:00 AM 48.9370 -20.4142 77° East 502 578 35,000  Level FlightAware Transoceanic
Fri 02:20:00 AM 48.9687 -20.2072 77° East 502 578 35,000  Level FlightAware Transoceanic
Fri 02:21:00 AM 49.0007 -19.9956 77° East  Level FlightAware Approximate
Fri 02:22:00 AM 49.0012 -19.9911 78° East  Level FlightAware Approximate
Fri 02:23:00 AM 49.0300 -19.7782 78° East  Level FlightAware Approximate
Fri 02:24:00 AM 49.0584 -19.5651 78° East  Level FlightAware Approximate
Fri 02:25:00 AM 49.0864 -19.3518 79° East  Level FlightAware Approximate
Fri 02:26:00 AM 49.1141 -19.1382 79° East  Level FlightAware Approximate
Fri 02:27:00 AM 49.1413 -18.9244 79° East  Level FlightAware Approximate
Fri 02:28:00 AM 49.1682 -18.7103 79° East  Level FlightAware Approximate
Fri 02:29:00 AM 49.1946 -18.4960 79° East  Level FlightAware Approximate
Fri 02:30:00 AM 49.2206 -18.2815 79° East  Level FlightAware Approximate
Fri 02:31:00 AM 49.2463 -18.0668 80° East  Level FlightAware Approximate
Fri 02:32:00 AM 49.2715 -17.8518 80° East  Level FlightAware Approximate
Fri 02:33:00 AM 49.2964 -17.6366 80° East  Level FlightAware Approximate
Fri 02:34:00 AM 49.3207 -17.4226 80° East  Level FlightAware Approximate
Fri 02:35:00 AM 49.3446 -17.2084 80° East  Level FlightAware Approximate
Fri 02:36:00 AM 49.3681 -16.9940 80° East  Level FlightAware Approximate
Fri 02:37:00 AM 49.3912 -16.7794 81° East  Level FlightAware Approximate
Fri 02:38:00 AM 49.4139 -16.5646 81° East  Level FlightAware Approximate
Fri 02:39:00 AM 49.4362 -16.3496 81° East  Level FlightAware Approximate
Fri 02:40:00 AM 49.4581 -16.1344 81° East  Level FlightAware Approximate
Fri 02:41:00 AM 49.4796 -15.9190 81° East  Level FlightAware Approximate
Fri 02:42:00 AM 49.5007 -15.7034 81° East  Level FlightAware Approximate
Fri 02:43:00 AM 49.5214 -15.4876 82° East  Level FlightAware Approximate
Fri 02:44:00 AM 49.5417 -15.2717 82° East  Level FlightAware Approximate
Fri 02:45:00 AM 49.5616 -15.0556 82° East  Level FlightAware Approximate
Fri 02:46:00 AM 49.5815 -14.8393 82° East  Level FlightAware Approximate
Fri 02:47:00 AM 49.6010 -14.6230 82° East  Level FlightAware Approximate
Fri 02:48:00 AM 49.6202 -14.4064 82° East  Level FlightAware Approximate
Fri 02:49:00 AM 49.6389 -14.1897 82° East  Level FlightAware Approximate
Fri 02:50:00 AM 49.6573 -13.9728 82° East  Level FlightAware Approximate
Fri 02:51:00 AM 49.6752 -13.7558 83° East  Level FlightAware Approximate
Fri 02:52:00 AM 49.6928 -13.5386 83° East  Level FlightAware Approximate
Fri 02:53:00 AM 49.7099 -13.3212 83° East  Level FlightAware Approximate
Fri 02:54:00 AM 49.7266 -13.1037 83° East  Level FlightAware Approximate
Fri 02:55:00 AM 49.7429 -12.8860 83° East  Level FlightAware Approximate
Fri 02:56:00 AM 49.7588 -12.6682 83° East  Level FlightAware Approximate
Fri 02:57:00 AM 49.7743 -12.4503 84° East  Level FlightAware Approximate
Fri 02:58:00 AM 49.7894 -12.2322 84° East  Level FlightAware Approximate
Fri 02:59:00 AM 49.8041 -12.0140 84° East  Level FlightAware Approximate
Fri 03:00:00 AM 49.8184 -11.7957 84° East  Level FlightAware Approximate
Fri 03:01:00 AM 49.8322 -11.5772 84° East  Level FlightAware Approximate
Fri 03:02:00 AM 49.8457 -11.3586 84° East  Level FlightAware Approximate
Fri 03:03:00 AM 49.8587 -11.1399 85° East  Level FlightAware Approximate
Fri 03:04:00 AM 49.8714 -10.9211 85° East  Level FlightAware Approximate
Fri 03:05:00 AM 49.8836 -10.7021 85° East  Level FlightAware Approximate
Fri 03:06:00 AM 49.8954 -10.4831 85° East  Level FlightAware Approximate
Fri 03:07:00 AM 49.9068 -10.2639 85° East  Level FlightAware Approximate
Fri 03:08:00 AM 49.9177 -10.0447 85° East  Level FlightAware Approximate
Fri 03:09:00 AM 49.9283 -9.8253 86° East  Level FlightAware Approximate
Fri 03:10:00 AM 49.9384 -9.6059 86° East  Level FlightAware Approximate
Fri 03:11:00 AM 49.9482 -9.3863 86° East  Level FlightAware Approximate
Fri 03:12:00 AM 49.9575 -9.1667 86° East  Level FlightAware Approximate
Fri 03:13:00 AM 49.9664 -8.9470 86° East  Level FlightAware Approximate
Fri 03:14:00 AM 49.9749 -8.7272 86° East  Level FlightAware Approximate
Fri 03:15:00 AM 49.9830 -8.5073 87° East  Level FlightAware Approximate
Fri 03:16:00 AM 49.9906 -8.2874 87° East  Level FlightAware Approximate
Fri 03:16:06 AM 49.7520 -9.7730 87° East 462 532 35,000  Level FlightAware ADS-B
Fri 03:17:00 AM 49.9979 -8.0674 87° East  Level FlightAware Approximate
Fri 03:17:01 AM 49.7760 -9.6140 77° East 462 532 35,000  Level FlightAware ADS-B
Fri 03:17:41 AM 49.7970 -9.4660 78° East 462 532 35,000  Level FlightAware ADS-B
Fri 03:18:26 AM 49.8180 -9.3220 77° East 463 533 35,000  Level FlightAware ADS-B
Fri 03:19:06 AM 49.8360 -9.1960 77° East 464 534 35,000  Level FlightAware ADS-B
Fri 03:19:51 AM 49.8570 -9.0470 78° East 464 534 35,000 -1,600 Level FlightAware ADS-B
Fri 03:20:06 AM 49.8643 -8.9925 78° East 438 504 33,400 -2,727 Descending FlightAware UK
Fri 03:20:24 AM 49.8727 -8.9341 77° East 440 506 33,500 3,840 Climbing FlightAware UK
Fri 03:20:31 AM 49.8750 -8.9200 77° East 467 537 35,000  Climbing FlightAware ADS-B
Fri 03:20:48 AM 49.8836 -8.8558 77° East 444 511 33,500 -2,571 Descending FlightAware UK
Fri 03:21:06 AM 49.8919 -8.7970 78° East 444 511 33,500 3,913 Level FlightAware UK
Fri 03:21:11 AM 49.8940 -8.7860 78° East 469 540 35,000 -250 Climbing FlightAware ADS-B
Fri 03:21:30 AM 49.9030 -8.7183 78° East 446 513 33,400 -2,595 Descending FlightAware UK
Fri 03:21:48 AM 49.9112 -8.6592 78° East 446 513 33,400 3,692 Level FlightAware UK
Fri 03:21:56 AM 49.9140 -8.6380 78° East 470 541 35,000  Climbing FlightAware ADS-B
Fri 03:22:12 AM 49.9220 -8.5801 78° East 446 513 33,400 -2,647 Descending FlightAware UK
Fri 03:22:30 AM 49.9301 -8.5207 78° East 450 518 33,500 4,000 Climbing FlightAware UK
Fri 03:22:36 AM 49.9320 -8.5100 78° East 470 541 35,000  Climbing FlightAware ADS-B
Fri 03:22:54 AM 49.9408 -8.4414 78° East 450 518 33,500 -2,500 Descending FlightAware UK
Fri 03:23:12 AM 49.9487 -8.3818 78° East 448 516 33,500 3,333 Level FlightAware UK
Fri 03:23:21 AM 49.9530 -8.3570 78° East 469 540 35,000  Climbing FlightAware ADS-B
Fri 03:23:36 AM 49.9605 -8.3030 78° East 448 516 33,500 -2,727 Descending FlightAware UK
Fri 03:23:54 AM 49.9703 -8.2444 75° East 448 516 33,500 3,600 Level FlightAware UK
Fri 03:24:01 AM 49.9750 -8.2280 75° East 469 540 35,000  Climbing FlightAware ADS-B
Fri 03:24:18 AM 49.9844 -8.1666 75° East 448 516 33,500 -2,571 Descending FlightAware UK
Fri 03:24:36 AM 49.9946 -8.1082 75° East 448 516 33,500 3,214 Level FlightAware UK
Fri 03:24:46 AM 49.9990 -8.0830 75° East 470 541 35,000  Climbing FlightAware ADS-B
Fri 03:25:06 AM 50.0110 -8.0098 75° East 446 513 33,500 -2,368 Descending FlightAware UK
Fri 03:25:24 AM 50.0207 -7.9506 76° East 446 513 33,500 4,500 Level FlightAware UK
Fri 03:25:26 AM 50.0200 -7.9540 76° East 471 542 35,000  Climbing FlightAware ADS-B
Fri 03:25:42 AM 50.0302 -7.8913 76° East 446 513 33,500 -2,647 Descending FlightAware UK
Fri 03:26:00 AM 50.0396 -7.8321 76° East 448 516 33,500 3,750 Level FlightAware UK
Fri 03:26:06 AM 50.0410 -7.8240 76° East 471 542 35,000  Climbing FlightAware ADS-B
Fri 03:26:24 AM 50.0518 -7.7532 76° East 448 516 33,500 -2,500 Descending FlightAware UK
Fri 03:26:42 AM 50.0611 -7.6941 76° East 448 516 33,500 3,333 Level FlightAware UK
Fri 03:26:51 AM 50.0650 -7.6710 76° East 471 542 35,000  Climbing FlightAware ADS-B
Fri 03:27:06 AM 50.0735 -7.6154 76° East 448 516 33,500 -2,727 Descending FlightAware UK
Fri 03:27:24 AM 50.0826 -7.5562 77° East 448 516 33,500 3,600 Level FlightAware UK
Fri 03:27:31 AM 50.0850 -7.5400 77° East 472 543 35,000  Climbing FlightAware ADS-B
Fri 03:27:48 AM 50.0948 -7.4772 77° East 446 513 33,500 -2,571 Descending FlightAware UK
Fri 03:28:06 AM 50.1039 -7.4179 76° East 446 513 33,500 3,214 Level FlightAware UK
Fri 03:28:16 AM 50.1080 -7.3950 76° East 472 543 35,000  Climbing FlightAware ADS-B
Fri 03:28:36 AM 50.1191 -7.3189 76° East 448 516 33,500 -2,368 Descending FlightAware UK
Fri 03:28:54 AM 50.1282 -7.2595 76° East 446 513 33,500 4,500 Level FlightAware UK
Fri 03:28:56 AM 50.1280 -7.2610 76° East 472 543 35,000  Climbing FlightAware ADS-B
Fri 03:29:12 AM 50.1373 -7.2000 76° East 446 513 33,500 -2,647 Descending FlightAware UK
Fri 03:29:30 AM 50.1465 -7.1404 76° East 448 516 33,500 3,103 Level FlightAware UK
Fri 03:29:41 AM 50.1510 -7.1090 76° East 473 544 35,000  Climbing FlightAware ADS-B
Fri 03:30:00 AM 50.1615 -7.0410 76° East 448 516 33,500 -2,432 Descending FlightAware UK
Fri 03:30:18 AM 50.1706 -6.9806 77° East 446 513 33,500 4,286 Level FlightAware UK
Fri 03:30:21 AM 50.1710 -6.9770 77° East 473 544 35,000  Climbing FlightAware ADS-B
Fri 03:30:36 AM 50.1796 -6.9209 77° East 446 513 33,500 -2,727 Descending FlightAware UK
Fri 03:30:54 AM 50.1887 -6.8612 77° East 448 516 33,500 3,600 Level FlightAware UK
Fri 03:31:01 AM 50.1910 -6.8450 77° East 474 545 35,000  Climbing FlightAware ADS-B
Fri 03:31:18 AM 50.2005 -6.7814 77° East 446 513 33,500 -2,571 Descending FlightAware UK
Fri 03:31:36 AM 50.2093 -6.7216 77° East 448 516 33,500 3,214 Level FlightAware UK
Fri 03:31:46 AM 50.2130 -6.6970 77° East 473 544 35,000  Climbing FlightAware ADS-B
Fri 03:32:06 AM 50.2242 -6.6221 77° East 444 511 33,500 -2,368 Descending FlightAware UK
Fri 03:32:24 AM 50.2332 -6.5624 77° East 442 509 33,500 4,500 Level FlightAware UK
Fri 03:32:26 AM 50.2330 -6.5630 77° East 474 545 35,000  Climbing FlightAware ADS-B
Fri 03:32:42 AM 50.2421 -6.5027 77° East 444 511 33,500 -2,647 Descending FlightAware UK
Fri 03:33:00 AM 50.2508 -6.4428 77° East 446 513 33,500 3,103 Level FlightAware UK
Fri 03:33:11 AM 50.2550 -6.4110 77° East 476 548 35,000  Climbing FlightAware ADS-B
Fri 03:33:30 AM 50.2652 -6.3425 77° East 448 516 33,500 -2,432 Descending FlightAware UK
Fri 03:33:48 AM 50.2739 -6.2821 77° East 448 516 33,500 4,286 Level FlightAware UK
Fri 03:33:51 AM 50.2740 -6.2780 77° East 477 549 35,000  Climbing FlightAware ADS-B
Fri 03:34:06 AM 50.2827 -6.2217 77° East 448 516 33,500 -2,727 Descending FlightAware UK
Fri 03:34:24 AM 50.2913 -6.1612 77° East 446 513 33,500 3,600 Level FlightAware UK
Fri 03:34:31 AM 50.2940 -6.1430 77° East 478 550 35,000  Climbing FlightAware ADS-B
Fri 03:34:48 AM 50.3030 -6.0805 77° East 446 513 33,500 -2,571 Descending FlightAware UK
Fri 03:35:06 AM 50.3116 -6.0199 77° East 446 513 33,500 3,214 Level FlightAware UK
Fri 03:35:16 AM 50.3150 -5.9930 77° East 479 551 35,000  Climbing FlightAware ADS-B
Fri 03:35:36 AM 50.3257 -5.9184 77° East 444 511 33,500 -2,368 Descending FlightAware UK
Fri 03:35:54 AM 50.3345 -5.8569 77° East 446 513 33,500 4,500 Level FlightAware UK
Fri 03:35:56 AM 50.3330 -5.8630 77° East 481 554 35,000  Climbing FlightAware ADS-B
Fri 03:36:12 AM 50.3431 -5.7958 77° East 452 520 33,500 -2,647 Descending FlightAware UK
Fri 03:36:30 AM 50.3515 -5.7344 78° East 454 522 33,500 3,103 Level FlightAware UK
Fri 03:36:41 AM 50.3550 -5.7090 78° East 488 562 35,000  Climbing FlightAware ADS-B
Fri 03:37:00 AM 50.3660 -5.6302 78° East 462 532 33,500 -2,432 Descending FlightAware UK
Fri 03:37:18 AM 50.3747 -5.5676 78° East 460 529 33,500 4,286 Level FlightAware UK
Fri 03:37:21 AM 50.3740 -5.5710 78° East 491 565 35,000  Climbing FlightAware ADS-B
Fri 03:37:36 AM 50.3833 -5.5051 78° East 462 532 33,500 -2,727 Descending FlightAware UK
Fri 03:37:54 AM 50.3919 -5.4418 78° East 462 532 33,500 3,000 Level FlightAware UK
Fri 03:38:06 AM 50.3950 -5.4120 78° East 493 567 35,000  Climbing FlightAware ADS-B
Fri 03:38:24 AM 50.4059 -5.3372 78° East 464 534 33,500 -2,500 Descending FlightAware UK
Fri 03:38:42 AM 50.4144 -5.2743 78° East 466 536 33,500 4,091 Level FlightAware UK
Fri 03:38:46 AM 50.4140 -5.2750 78° East 492 566 35,000  Climbing FlightAware ADS-B
Fri 03:39:06 AM 50.4257 -5.1906 78° East 462 532 33,500  Descending FlightAware UK
Fri 03:39:26 AM 50.4330 -5.1340 78° East 492 566 35,000  Climbing FlightAware ADS-B
Fri 03:39:42 AM 50.4425 -5.0653 78° East 462 532 33,500 -2,647 Descending FlightAware UK
Fri 03:40:00 AM 50.4509 -5.0026 78° East 462 532 33,500 3,103 Level FlightAware UK
Fri 03:40:11 AM 50.4540 -4.9750 78° East 493 567 35,000  Climbing FlightAware ADS-B
Fri 03:40:31 AM 50.4645 -4.8972 78° East 462 532 33,500 -2,368 Descending FlightAware UK
Fri 03:40:49 AM 50.4728 -4.8344 78° East 460 529 33,500 4,500 Level FlightAware UK
Fri 03:40:51 AM 50.4720 -4.8390 78° East 491 565 35,000  Climbing FlightAware ADS-B
Fri 03:41:07 AM 50.4809 -4.7716 78° East 462 532 33,500  Descending FlightAware UK
Fri 03:41:31 AM 50.4900 -4.6980 78° East 492 566 35,000  Climbing FlightAware ADS-B
Fri 03:41:49 AM 50.4999 -4.6249 78° East 464 534 33,500  Descending FlightAware UK
Fri 03:42:16 AM 50.5100 -4.5420 78° East 491 565 35,000  Climbing FlightAware ADS-B
Fri 03:42:31 AM 50.5188 -4.4783 78° East 462 532 33,500 -2,727 Descending FlightAware UK
Fri 03:42:49 AM 50.5266 -4.4155 79° East 462 532 33,500 3,600 Level FlightAware UK
Fri 03:42:56 AM 50.5280 -4.4000 79° East 491 565 35,000  Climbing FlightAware ADS-B
Fri 03:43:19 AM 50.5397 -4.3107 79° East 462 532 33,500  Descending FlightAware UK
Fri 03:43:41 AM 50.5480 -4.2410 79° East 492 566 35,000  Climbing FlightAware ADS-B
Fri 03:44:01 AM 50.5581 -4.1631 79° East 464 534 33,500 -2,368 Descending FlightAware UK
Fri 03:44:19 AM 50.5660 -4.1001 79° East 464 534 33,500 4,500 Level FlightAware UK
Fri 03:44:21 AM 50.5660 -4.1000 79° East 492 566 35,000  Climbing FlightAware ADS-B
Fri 03:44:43 AM 50.5765 -4.0161 79° East 460 529 33,500  Descending FlightAware UK
Fri 03:45:01 AM 50.5835 -3.9548 79° East 493 567 35,000  Climbing FlightAware ADS-B
Fri 03:45:19 AM 50.5917 -3.8897 79° East 462 532 33,500  Descending FlightAware UK
Fri 03:45:32 AM 50.5966 -3.8466 79° East 493 567 35,000  Climbing FlightAware ADS-B
Fri 03:45:49 AM 50.6044 -3.7844 79° East 464 534 33,500  Descending FlightAware UK
Fri 03:46:02 AM 50.6096 -3.7399 79° East 492 566 35,000 1,467 Climbing FlightAware ADS-B
Fri 03:46:34 AM 50.6230 -3.6273 79° East 496 571 34,600 -2,604 Descending FlightAware ADS-B
Fri 03:46:55 AM 50.6321 -3.5522 79° East 474 545 32,700 -947 Descending FlightAware UK
Fri 03:47:12 AM 50.6393 -3.4942 79° East 497 572 34,000 -1,000 Climbing FlightAware ADS-B
Fri 03:47:31 AM 50.6505 -3.4250 79° East 464 534 32,100 -1,000 Descending FlightAware UK
Fri 03:47:42 AM 50.6561 -3.3875 79° East 492 566 33,500 -833 Climbing FlightAware ADS-B
Fri 03:48:07 AM 50.6701 -3.3001 79° East 462 532 31,600 -857 Descending FlightAware UK
Fri 03:48:17 AM 50.6752 -3.2677 79° East 492 566 33,000 -1,000 Climbing FlightAware ADS-B
Fri 03:48:37 AM 50.6864 -3.1960 79° East 466 536 31,100 -1,000 Descending FlightAware UK
Fri 03:48:53 AM 50.6944 -3.1420 79° East 493 567 32,400 -1,000 Climbing FlightAware ADS-B
Fri 03:49:13 AM 50.7053 -3.0699 79° East 466 536 30,500 -1,400 Descending FlightAware UK
Fri 03:49:23 AM 50.7104 -3.0364 79° East 489 563 31,700 146 Climbing FlightAware ADS-B
Fri 03:49:54 AM 50.7265 -2.9313 76° East 482 555 30,600 -4,080 Descending FlightAware ADS-B
Fri 03:50:13 AM 50.7366 -2.8652 76° East 450 518 28,300 -2,129 Descending FlightAware UK
Fri 03:50:25 AM 50.7429 -2.8267 76° East 470 541 29,500 -2,167 Climbing FlightAware ADS-B
Fri 03:50:49 AM 50.7558 -2.7461 76° East 436 502 27,000 -2,516 Descending FlightAware UK
Fri 03:50:56 AM 50.7593 -2.7248 76° East 462 532 28,200 -2,250 Climbing FlightAware ADS-B
Fri 03:51:13 AM 50.7682 -2.6688 76° East 430 495 26,100 -2,129 Descending FlightAware UK
Fri 03:51:27 AM 50.7740 -2.6261 76° East 453 521 27,100 -500 Climbing FlightAware ADS-B
Fri 03:52:01 AM 50.7830 -2.5136 83° East 452 520 25,700 -2,123 Descending FlightAware ADS-B
Fri 03:52:32 AM 50.7906 -2.4145 83° East 436 502 24,800 -1,674 Descending FlightAware ADS-B
Fri 03:52:44 AM 50.7899 -2.3794 92° East 434 499 24,500 -4,400 Descending FlightAware ADS-B
Fri 03:53:02 AM 50.7857 -2.3215 92° East 400 460 22,600 -1,459 Descending FlightAware UK
Fri 03:53:21 AM 50.7816 -2.2623 92° East 432 497 23,600 360 Climbing FlightAware ADS-B
Fri 03:53:52 AM 50.7755 -2.1666 96° East 430 495 22,900 -3,447 Descending FlightAware ADS-B
Fri 03:54:08 AM 50.7723 -2.1149 96° East 394 453 20,900 -1,800 Descending FlightAware UK
Fri 03:54:22 AM 50.7701 -2.0710 96° East 432 497 22,000 267 Climbing FlightAware ADS-B
Fri 03:54:53 AM 50.7649 -1.9762 95° East 428 493 21,100 -1,672 Descending FlightAware ADS-B
Fri 03:55:23 AM 50.7598 -1.8836 95° East 422 486 20,300 -3,867 Descending FlightAware ADS-B
Fri 03:55:38 AM 50.7573 -1.8359 95° East 382 440 18,200 -2,000 Descending FlightAware UK
Fri 03:55:53 AM 50.7546 -1.7903 95° East 419 482 19,300 -1,833 Climbing FlightAware ADS-B
Fri 03:56:14 AM 50.7509 -1.7273 95° East 378 435 17,100 -1,935 Descending FlightAware UK
Fri 03:56:24 AM 50.7490 -1.6986 95° East 412 474 18,300 1,317 Climbing FlightAware ADS-B
Fri 03:56:55 AM 50.7432 -1.6068 96° East 405 466 18,000 -450 Descending FlightAware ADS-B
Fri 03:57:04 AM 50.7426 -1.5794 92° East 405 466 18,000  Level FlightAware ADS-B
Fri 03:57:16 AM 50.7451 -1.5463 83° East 405 466 18,000 -3,214 Level FlightAware ADS-B
Fri 03:57:32 AM 50.7524 -1.4973 83° East 368 423 16,500  Descending FlightAware UK
Fri 03:57:46 AM 50.7580 -1.4577 83° East 409 471 18,000  Climbing FlightAware ADS-B
Fri 03:58:02 AM 50.7650 -1.4105 83° East 370 426 16,500 -563 Descending FlightAware UK
Fri 03:58:18 AM 50.7710 -1.3667 83° East 405 466 17,700 1,059 Climbing FlightAware ADS-B
Fri 03:58:36 AM 50.7789 -1.3156 76° East 401 461 17,100 -1,929 Descending FlightAware ADS-B
Fri 03:58:46 AM 50.7867 -1.2867 67° East 399 459 16,800 -2,143 Descending FlightAware ADS-B
Fri 03:58:50 AM 50.7905 -1.2761 60° Northeast 398 458 16,600 -2,000 Descending FlightAware ADS-B
Fri 03:58:58 AM 50.7982 -1.2585 55° Northeast 395 455 16,400 -1,875 Descending FlightAware ADS-B
Fri 03:59:06 AM 50.8075 -1.2418 49° Northeast 392 451 16,100 -5,357 Descending FlightAware ADS-B
Fri 03:59:26 AM 50.8343 -1.2004 49° Northeast 358 412 13,900 -1,935 Descending FlightAware UK
Fri 03:59:37 AM 50.8479 -1.1792 49° Northeast 387 445 15,100 -1,800 Climbing FlightAware ADS-B
Fri 03:59:56 AM 50.8725 -1.1410 49° Northeast 356 410 13,000 -1,742 Descending FlightAware UK
Fri 04:00:08 AM 50.8862 -1.1196 49° Northeast 379 436 14,200 -1,800 Climbing FlightAware ADS-B
Fri 04:00:26 AM 50.9097 -1.0826 49° Northeast 348 400 12,100 -1,600 Descending FlightAware UK
Fri 04:00:38 AM 50.9232 -1.0614 49° Northeast 371 427 13,400 837 Climbing FlightAware ADS-B
Fri 04:01:09 AM 50.9611 -1.0025 44° Northeast 369 425 12,700 -3,250 Descending FlightAware ADS-B
Fri 04:01:26 AM 50.9828 -0.9687 44° Northeast 330 380 10,800 -1,000 Descending FlightAware UK
Fri 04:01:39 AM 50.9965 -0.9470 44° Northeast 353 406 12,200 -968 Climbing FlightAware ADS-B
Fri 04:01:57 AM 51.0174 -0.9140 44° Northeast 318 366 10,300 -968 Descending FlightAware UK
Fri 04:02:10 AM 51.0316 -0.8919 44° Northeast 343 395 11,700 1,256 Climbing FlightAware ADS-B
Fri 04:02:40 AM 51.0653 -0.8387 45° Northeast 341 392 11,200 -3,000 Descending FlightAware ADS-B
Fri 04:02:56 AM 51.0843 -0.8085 45° Northeast 308 354 9,400 -400 Descending FlightAware UK
Fri 04:03:10 AM 51.0981 -0.7853 45° Northeast 322 371 11,000 1,467 Climbing FlightAware ADS-B
Fri 04:03:41 AM 51.1292 -0.7344 46° Northeast 313 360 10,500 -2,717 Descending FlightAware ADS-B
Fri 04:04:03 AM 51.1514 -0.6984 46° Northeast 282 325 8,600 -774 Descending FlightAware UK
Fri 04:04:12 AM 51.1599 -0.6844 46° Northeast 301 346 10,100 3,250 Climbing FlightAware ADS-B
Fri 04:04:27 AM 51.1744 -0.6607 46° Northeast 292 336 9,900 -621 Descending FlightAware ADS-B
Fri 04:04:41 AM 51.1877 -0.6390 46° Northeast 284 327 9,800 -600 Descending FlightAware ADS-B
Fri 04:04:57 AM 51.2019 -0.6160 45° Northeast 278 320 9,600 -909 Descending FlightAware ADS-B
Fri 04:05:14 AM 51.2168 -0.5919 45° Northeast 275 316 9,300 -1,273 Descending FlightAware ADS-B
Fri 04:05:30 AM 51.2309 -0.5688 46° Northeast 274 315 8,900 -1,161 Descending FlightAware ADS-B
Fri 04:05:45 AM 51.2445 -0.5466 46° Northeast 270 311 8,700 -581 Descending FlightAware ADS-B
Fri 04:06:01 AM 51.2579 -0.5243 46° Northeast 268 308 8,600 -581 Descending FlightAware ADS-B
Fri 04:06:16 AM 51.2711 -0.5026 46° Northeast 269 310 8,400 -600 Descending FlightAware ADS-B
Fri 04:06:31 AM 51.2845 -0.4808 46° Northeast 269 310 8,300 -581 Descending FlightAware ADS-B
Fri 04:06:47 AM 51.2975 -0.4594 46° Northeast 267 307 8,100 -900 Descending FlightAware ADS-B
Fri 04:06:51 AM 51.3020 -0.4533 40° Northeast 264 304 8,000 -750 Descending FlightAware ADS-B
Fri 04:06:55 AM 51.3057 -0.4497 32° Northeast 262 302 8,000  Level FlightAware ADS-B
Fri 04:07:00 AM 51.3112 -0.4459 23° Northeast 259 298 8,000  Level FlightAware ADS-B
Fri 04:07:04 AM 51.3162 -0.4438 14° North 256 295 8,000  Level FlightAware ADS-B
Fri 04:07:10 AM 51.3232 -0.4428 North 254 292 8,000  Level FlightAware ADS-B
Fri 04:07:27 AM 51.3430 -0.4420 North 256 295 8,000  Level FlightAware ADS-B
Fri 04:07:42 AM 51.3607 -0.4411 North 255 293 8,000  Level FlightAware ADS-B
Fri 04:07:58 AM 51.3788 -0.4400 North 253 291 8,000  Level FlightAware ADS-B
Fri 04:08:05 AM 51.3875 -0.4392 North 253 291 8,000  Level FlightAware ADS-B
Fri 04:08:10 AM 51.3937 -0.4372 11° North 254 292 8,000  Level FlightAware ADS-B
Fri 04:08:14 AM 51.3976 -0.4349 20° North 256 295 8,000  Level FlightAware ADS-B
Fri 04:08:17 AM 51.4009 -0.4323 26° Northeast 256 295 8,000  Level FlightAware ADS-B
Fri 04:08:21 AM 51.4044 -0.4285 33° Northeast 256 295 8,000  Level FlightAware ADS-B
Fri 04:08:26 AM 51.4092 -0.4216 42° Northeast 257 296 8,000  Level FlightAware ADS-B
Fri 04:08:31 AM 51.4125 -0.4150 52° Northeast 258 297 8,000  Level FlightAware ADS-B
Fri 04:08:34 AM 51.4149 -0.4084 60° Northeast 260 299 8,000  Level FlightAware ADS-B
Fri 04:08:38 AM 51.4165 -0.4022 68° East 260 299 8,000  Level FlightAware ADS-B
Fri 04:08:42 AM 51.4179 -0.3941 74° East 260 299 8,000  Level FlightAware ADS-B
Fri 04:08:45 AM 51.4184 -0.3882 82° East 260 299 8,000  Level FlightAware ADS-B
Fri 04:08:52 AM 51.4183 -0.3751 91° East 258 297 8,000  Level FlightAware ADS-B
Fri 04:08:58 AM 51.4167 -0.3648 104° East 255 293 8,000  Level FlightAware ADS-B
Fri 04:09:03 AM 51.4144 -0.3561 113° Southeast 253 291 8,000  Level FlightAware ADS-B
Fri 04:09:09 AM 51.4109 -0.3458 119° Southeast 252 290 8,000 -375 Level FlightAware ADS-B
Fri 04:09:19 AM 51.4057 -0.3306 119° Southeast 252 290 7,900 -923 Descending FlightAware ADS-B
Fri 04:09:35 AM 51.3966 -0.3036 118° Southeast 251 289 7,600 -818 Descending FlightAware ADS-B
Fri 04:09:41 AM 51.3939 -0.2946 116° Southeast 251 289 7,600 -667 Level FlightAware ADS-B
Fri 04:09:44 AM 51.3926 -0.2891 111° Southeast 252 290 7,500 -1,091 Descending FlightAware ADS-B
Fri 04:09:52 AM 51.3910 -0.2734 99° East 256 295 7,400 -923 Descending FlightAware ADS-B
Fri 04:09:57 AM 51.3911 -0.2641 89° East 257 296 7,300 -1,125 Descending FlightAware ADS-B
Fri 04:10:08 AM 51.3915 -0.2424 88° East 257 296 7,100 -1,111 Descending FlightAware ADS-B
Fri 04:10:24 AM 51.3919 -0.2127 89° East 257 296 6,800 -1,125 Descending FlightAware ADS-B
Fri 04:10:40 AM 51.3923 -0.1826 89° East 256 295 6,500 -1,161 Descending FlightAware ADS-B
Fri 04:10:55 AM 51.3926 -0.1536 89° East 255 293 6,200 -1,091 Descending FlightAware ADS-B
Fri 04:11:13 AM 51.3932 -0.1206 88° East 255 293 5,900 -882 Descending FlightAware ADS-B
Fri 04:11:29 AM 51.3937 -0.0912 88° East 253 291 5,700 -720 Descending FlightAware ADS-B
Fri 04:11:38 AM 51.3955 -0.0743 80° East 252 290 5,600 -923 Descending FlightAware ADS-B
Fri 04:11:42 AM 51.3972 -0.0674 69° East 253 291 5,500 -750 Descending FlightAware ADS-B
Fri 04:11:46 AM 51.3995 -0.0609 60° Northeast 252 290 5,500 -750 Level FlightAware ADS-B
Fri 04:11:50 AM 51.4021 -0.0552 54° Northeast 252 290 5,400 -545 Descending FlightAware ADS-B
Fri 04:11:57 AM 51.4081 -0.0467 42° Northeast 248 285 5,400  Level FlightAware ADS-B
Fri 04:12:00 AM 51.4117 -0.0431 32° Northeast 244 281 5,400  Level FlightAware ADS-B
Fri 04:12:04 AM 51.4157 -0.0403 24° Northeast 239 275 5,400 -545 Level FlightAware ADS-B
Fri 04:12:11 AM 51.4231 -0.0375 13° North 231 266 5,300 -1,000 Descending FlightAware ADS-B
Fri 04:12:16 AM 51.4276 -0.0369 North 227 261 5,200 -500 Descending FlightAware ADS-B
Fri 04:12:23 AM 51.4350 -0.0364 North 220 253 5,200  Level FlightAware ADS-B
Fri 04:12:27 AM 51.4385 -0.0365 359° North 217 250 5,200 -857 Level FlightAware ADS-B
Fri 04:12:30 AM 51.4415 -0.0370 354° North 215 247 5,100 -800 Descending FlightAware ADS-B
Fri 04:12:42 AM 51.4521 -0.0446 336° Northwest 196 226 5,000 -375 Descending FlightAware ADS-B
Fri 04:12:46 AM 51.4543 -0.0480 316° Northwest 188 216 5,000  Level FlightAware ADS-B
Fri 04:12:49 AM 51.4562 -0.0516 310° West 185 213 5,000  Level FlightAware ADS-B
Fri 04:12:54 AM 51.4584 -0.0565 306° West 182 209 5,000 -286 Level FlightAware ADS-B
Fri 04:13:10 AM 51.4660 -0.0739 305° West 182 209 4,900 -581 Descending FlightAware ADS-B
Fri 04:13:25 AM 51.4734 -0.0910 305° West 183 211 4,700 -947 Descending FlightAware ADS-B
Fri 04:13:29 AM 51.4750 -0.0956 299° West 180 207 4,600 -750 Descending FlightAware ADS-B
Fri 04:13:33 AM 51.4762 -0.1001 293° West 177 204 4,600  Level FlightAware ADS-B
Fri 04:13:36 AM 51.4771 -0.1044 289° West 174 200 4,600 -462 Level FlightAware ADS-B
Fri 04:13:46 AM 51.4782 -0.1160 279° West 168 193 4,500 -750 Descending FlightAware ADS-B
Fri 04:13:52 AM 51.4780 -0.1233 267° West 167 192 4,400 -706 Descending FlightAware ADS-B
Fri 04:14:03 AM 51.4777 -0.1378 268° West 169 194 4,300 -667 Descending FlightAware ADS-B
Fri 04:14:19 AM 51.4782 -0.1573 272° West 170 196 4,100 -750 Descending FlightAware ADS-B
Fri 04:14:35 AM 51.4781 -0.1772 270° West 169 194 3,900 -774 Descending FlightAware ADS-B
Fri 04:14:50 AM 51.4781 -0.1959 270° West 167 192 3,700 -882 Descending FlightAware ADS-B
Fri 04:15:09 AM 51.4781 -0.2171 270° West 167 192 3,400 -878 Descending FlightAware ADS-B
Fri 04:15:31 AM 51.4781 -0.2417 270° West 167 192 3,100 -737 Descending FlightAware ADS-B
Fri 04:16:06 AM 51.4780 -0.2730 270° West 145 167 2,700 -2,640 Descending FlightAware ADS-B
Fri 04:16:21 AM 51.4781 -0.2956 270° West 164 189 900 -1,000 Descending FlightAware UK
Fri 04:16:36 AM 51.4780 -0.3090 270° West 147 169 2,200 2,880 Climbing FlightAware ADS-B
Fri 04:16:46 AM 51.4780 -0.3200 270° West 148 170 2,100 -4,222 Descending FlightAware ADS-B
Fri 04:17:03 AM 51.4779 -0.3413 270° West 162 186 300 -800 Descending FlightAware UK
Fri 04:17:16 AM 51.4780 -0.3530 270° West 148 170 1,700 4,333 Climbing FlightAware ADS-B
Fri 04:17:21 AM 51.4780 -0.3600 270° West 144 166 1,600 -1,200 Descending FlightAware ADS-B

Login

Don't have an account? Register now (free) for customized features, flight alerts, and more!